Time;durP1;ratioP1;P1;durP2;ratioP2;P2;SDS_P1;SDS_P2;PMS_P1;PMS_P2;Temp;Humidity;BMP_temperature;BMP_pressure;BME280_temperature;BME280_humidity;BME280_pressure;Samples;Min_cycle;Max_cycle;Signal;HPM_P1;HPM_P2
2021/05/09 00:00:01;;;;;;;21.08;12.38;;;;;;;7.77;58.68;100816.38;5095468;28;20032;-71
2021/05/09 00:02:27;;;;;;;23.35;13.77;;;;;;;7.68;58.97;100814.97;5095466;28;20397;-71
2021/05/09 00:04:52;;;;;;;20.85;12.43;;;;;;;7.47;58.93;100764.44;5077457;28;20051;-71
2021/05/09 00:07:18;;;;;;;20.15;12.70;;;;;;;7.73;58.60;100832.47;5060556;28;20495;-71
2021/05/09 00:09:43;;;;;;;19.27;11.68;;;;;;;7.71;58.65;100830.75;5095062;28;20035;-71
2021/05/09 00:12:11;;;;;;;21.30;12.95;;;;;;;7.70;58.39;100832.56;5077421;28;20484;-70
2021/05/09 00:14:37;;;;;;;21.50;12.48;;;;;;;7.56;58.13;100818.97;5095080;28;20097;-70
2021/05/09 00:17:02;;;;;;;21.35;11.95;;;;;;;7.59;58.26;100828.59;5076942;28;20472;-71
2021/05/09 00:19:28;;;;;;;21.95;12.35;;;;;;;7.56;58.16;100826.06;5076690;28;20070;-71
2021/05/09 00:21:53;;;;;;;20.00;11.95;;;;;;;7.53;58.27;100829.72;5060350;28;20032;-70
2021/05/09 00:24:18;;;;;;;20.00;11.38;;;;;;;7.11;58.39;100760.53;5095076;28;20043;-69
2021/05/09 00:26:44;;;;;;;20.23;11.98;;;;;;;7.49;58.38;100829.88;5094802;28;20894;-69
2021/05/09 00:29:09;;;;;;;21.67;11.82;;;;;;;7.24;58.79;100808.69;5094705;28;20089;-69
2021/05/09 00:31:35;;;;;;;21.13;12.50;;;;;;;7.36;58.42;100824.19;5094580;28;20044;-72
2021/05/09 00:34:00;;;;;;;17.58;10.93;;;;;;;7.45;58.14;100834.44;5094917;28;20503;-72
2021/05/09 00:36:26;;;;;;;20.88;11.98;;;;;;;7.43;58.26;100829.19;5094533;28;20039;-73
2021/05/09 00:38:52;;;;;;;22.67;12.48;;;;;;;7.41;58.44;100827.50;5060021;28;20123;-72
2021/05/09 00:41:17;;;;;;;21.90;13.27;;;;;;;7.28;58.47;100805.88;5076741;28;20545;-73
2021/05/09 00:43:43;;;;;;;23.35;14.10;;;;;;;7.32;58.77;100818.09;5076102;28;20028;-75
2021/05/09 00:46:08;;;;;;;20.75;13.32;;;;;;;7.31;58.82;100821.69;5094628;28;20103;-74
2021/05/09 00:48:35;;;;;;;20.40;11.52;;;;;;;7.26;59.04;100821.00;5075932;28;20439;-73
2021/05/09 00:51:00;;;;;;;16.85;10.50;;;;;;;7.02;59.12;100788.28;5094592;28;20046;-73
2021/05/09 00:53:27;;;;;;;16.55;10.27;;;;;;;7.10;58.92;100806.56;5094642;28;20035;-76
2021/05/09 00:55:54;;;;;;;17.88;10.88;;;;;;;7.17;59.05;100819.56;5059608;28;20509;-74
2021/05/09 00:58:20;;;;;;;17.33;10.52;;;;;;;7.02;58.89;100795.38;5094119;28;20024;-74
2021/05/09 01:00:46;;;;;;;18.23;10.57;;;;;;;6.93;59.07;100790.41;5093198;28;20036;-75
2021/05/09 01:03:14;;;;;;;18.02;10.40;;;;;;;7.11;59.21;100818.91;5094284;28;20458;-74
2021/05/09 01:05:40;;;;;;;19.45;10.20;;;;;;;7.05;59.70;100824.47;5093993;28;20373;-71
2021/05/09 01:08:06;;;;;;;16.27;10.32;;;;;;;7.04;59.71;100817.38;5076115;28;20032;-72
2021/05/09 01:10:32;;;;;;;16.27;10.20;;;;;;;6.77;59.84;100758.28;5075840;28;20043;-72
2021/05/09 01:12:58;;;;;;;15.60;10.20;;;;;;;6.96;60.49;100806.22;5093870;28;20504;-71
2021/05/09 01:15:24;;;;;;;18.10;10.38;;;;;;;6.77;61.33;100790.09;5076131;28;20044;-71
2021/05/09 01:17:50;;;;;;;16.65;10.23;;;;;;;6.76;61.62;100812.25;5075283;28;20506;-71
2021/05/09 01:20:15;;;;;;;17.30;10.77;;;;;;;6.77;61.08;100813.97;5093742;28;20032;-75
2021/05/09 01:22:42;;;;;;;18.75;11.27;;;;;;;6.63;61.48;100784.41;5093711;28;20085;-76
2021/05/09 01:25:08;;;;;;;17.27;9.88;;;;;;;6.77;61.59;100809.53;5075923;28;20097;-76
2021/05/09 01:27:35;;;;;;;16.35;9.85;;;;;;;6.90;61.34;100807.28;5093293;28;20051;-74
2021/05/09 01:30:01;;;;;;;17.58;10.60;;;;;;;6.85;61.54;100818.09;5093525;28;20040;-76
2021/05/09 01:32:26;;;;;;;17.13;10.27;;;;;;;6.84;61.58;100810.16;5075477;28;20036;-74
2021/05/09 01:34:52;;;;;;;16.27;9.70;;;;;;;6.69;61.63;100786.88;5093401;28;20111;-75
2021/05/09 01:37:17;;;;;;;17.27;9.77;;;;;;;6.75;62.49;100810.47;5093687;28;20062;-75
2021/05/09 01:39:43;;;;;;;17.23;10.57;;;;;;;6.76;63.33;100810.47;5093367;28;20453;-76
2021/05/09 01:42:08;;;;;;;16.75;10.63;;;;;;;6.54;63.89;100785.59;5075595;28;20043;-76
2021/05/09 01:44:34;;;;;;;18.90;10.15;;;;;;;6.72;62.77;100806.16;5093362;28;20047;-72
2021/05/09 01:46:59;;;;;;;17.75;9.93;;;;;;;6.75;62.72;100806.03;5093908;28;20472;-71
2021/05/09 01:49:25;;;;;;;15.93;9.20;;;;;;;6.60;61.98;100756.25;5093262;28;20028;-71
2021/05/09 01:51:50;;;;;;;15.45;9.30;;;;;;;6.85;62.22;100810.13;5075087;28;20036;-71
2021/05/09 01:54:16;;;;;;;19.65;10.68;;;;;;;6.79;62.24;100799.72;5093542;28;20035;-71
2021/05/09 01:56:42;;;;;;;16.95;9.48;;;;;;;6.84;62.12;100800.41;5075164;28;20035;-71
2021/05/09 01:59:08;;;;;;;15.82;8.85;;;;;;;6.69;62.36;100785.06;5093508;28;20040;-71
2021/05/09 02:01:35;;;;;;;17.63;10.45;;;;;;;6.67;62.97;100792.22;5074968;28;20059;-72
2021/05/09 02:04:00;;;;;;;17.15;9.45;;;;;;;6.68;62.66;100803.69;5093573;28;20475;-72
2021/05/09 02:06:26;;;;;;;20.17;10.48;;;;;;;6.64;62.63;100802.06;5075274;28;20087;-71
2021/05/09 02:08:51;;;;;;;17.67;10.73;;;;;;;6.43;62.38;100761.25;5074875;28;20040;-72
2021/05/09 02:11:18;;;;;;;16.58;8.95;;;;;;;6.71;62.41;100799.13;5075117;28;20058;-71
2021/05/09 02:13:43;;;;;;;14.18;8.70;;;;;;;6.83;62.15;100809.28;5092865;28;20497;-71
2021/05/09 02:16:09;;;;;;;17.20;9.43;;;;;;;6.76;62.26;100805.16;5093369;28;20067;-71
2021/05/09 02:18:34;;;;;;;17.27;10.13;;;;;;;6.65;62.83;100803.78;5074798;28;20141;-71
2021/05/09 02:21:00;;;;;;;16.75;9.02;;;;;;;6.39;63.27;100786.16;5093258;28;20035;-71
2021/05/09 02:23:25;;;;;;;15.15;8.75;;;;;;;6.37;64.01;100809.16;5093319;28;20465;-71
2021/05/09 02:25:51;;;;;;;20.08;9.07;;;;;;;6.36;64.05;100799.47;5092862;28;20043;-71
2021/05/09 02:28:16;;;;;;;17.27;9.48;;;;;;;6.48;63.94;100801.75;5093191;28;20446;-71
2021/05/09 02:30:42;;;;;;;15.80;9.43;;;;;;;6.42;63.67;100775.44;5074755;28;20038;-71
2021/05/09 02:33:12;;;;;;;17.05;9.70;;;;;;;6.46;63.61;100780.56;5058552;28;20512;-73
2021/05/09 02:35:37;;;;;;;16.65;9.70;;;;;;;6.59;63.63;100805.75;5093047;28;20032;-70
2021/05/09 02:38:03;;;;;;;18.17;10.00;;;;;;;6.67;63.44;100812.56;5093036;28;20032;-68
2021/05/09 02:40:28;;;;;;;17.85;9.85;;;;;;;6.50;64.09;100813.16;5074993;28;20040;-68
2021/05/09 02:42:53;;;;;;;21.63;11.95;;;;;;;6.50;64.08;100807.84;5092667;28;20032;-68
2021/05/09 02:45:19;;;;;;;21.98;11.60;;;;;;;6.47;64.13;100815.91;5058108;28;20037;-67
2021/05/09 02:47:44;;;;;;;19.70;11.75;;;;;;;6.47;64.39;100818.56;5074350;28;20032;-67
2021/05/09 02:50:11;;;;;;;24.42;13.50;;;;;;;6.45;64.48;100828.31;5074653;28;20392;-69
2021/05/09 02:52:36;;;;;;;22.08;13.98;;;;;;;6.26;64.48;100802.44;5074424;28;20028;-68
2021/05/09 02:55:03;;;;;;;22.70;13.43;;;;;;;6.24;64.57;100814.88;5041655;28;20128;-68
2021/05/09 02:57:28;;;;;;;22.60;13.50;;;;;;;6.30;64.85;100827.94;5075037;28;20039;-68
2021/05/09 02:59:54;;;;;;;21.20;11.23;;;;;;;6.06;64.98;100788.13;5074145;28;20397;-67
2021/05/09 03:02:19;;;;;;;20.52;10.60;;;;;;;6.31;65.49;100834.97;5057704;28;20077;-67
2021/05/09 03:04:45;;;;;;;19.70;11.10;;;;;;;6.25;66.14;100835.16;5092310;28;20039;-67
2021/05/09 03:07:10;;;;;;;17.40;10.68;;;;;;;6.13;66.76;100832.06;5093065;28;20028;-70
2021/05/09 03:09:36;;;;;;;21.35;10.80;;;;;;;5.94;67.28;100813.25;5075163;28;20082;-72
2021/05/09 03:12:01;;;;;;;18.92;10.27;;;;;;;6.12;67.40;100839.13;5093423;28;20032;-71
2021/05/09 03:14:27;;;;;;;18.50;10.15;;;;;;;6.12;67.62;100844.44;5092550;28;20036;-71
2021/05/09 03:16:52;;;;;;;19.92;10.60;;;;;;;6.07;67.38;100845.47;5092243;28;20485;-74
2021/05/09 03:19:18;;;;;;;14.95;9.40;;;;;;;6.06;67.56;100849.91;5074345;28;20055;-74
2021/05/09 03:21:43;;;;;;;17.98;9.68;;;;;;;5.91;68.36;100831.88;5092015;28;20032;-72
2021/05/09 03:24:10;;;;;;;16.35;9.57;;;;;;;5.87;68.95;100827.56;5095019;28;20386;-70
2021/05/09 03:26:35;;;;;;;17.30;9.85;;;;;;;5.99;69.34;100851.06;5078043;28;20602;-81
2021/05/09 03:29:01;;;;;;;16.65;9.82;;;;;;;5.99;69.13;100853.69;5096340;28;20107;-75
2021/05/09 03:31:27;;;;;;;17.98;9.90;;;;;;;6.00;68.91;100840.41;5096186;28;20392;-73
2021/05/09 03:33:53;;;;;;;15.07;9.30;;;;;;;6.31;68.10;100839.41;5095404;28;20039;-74
2021/05/09 03:36:18;;;;;;;14.93;9.27;;;;;;;6.31;68.02;100839.41;5095670;28;20043;-75
2021/05/09 03:38:44;;;;;;;17.00;9.65;;;;;;;6.41;67.80;100847.91;5095648;28;20122;-76
2021/05/09 03:41:09;;;;;;;18.35;9.05;;;;;;;6.53;67.47;100855.44;5095955;28;20028;-75
2021/05/09 03:43:35;;;;;;;13.95;9.30;;;;;;;6.43;67.36;100854.88;5095837;28;20038;-76
2021/05/09 03:46:00;;;;;;;18.23;9.52;;;;;;;6.11;67.89;100802.97;5060666;28;20035;-75
2021/05/09 03:48:25;;;;;;;20.52;10.60;;;;;;;6.08;67.84;100797.78;5095482;28;20040;-76
2021/05/09 03:50:51;;;;;;;17.58;9.70;;;;;;;6.21;67.83;100804.41;5077128;28;20067;-75
2021/05/09 03:53:16;;;;;;;17.52;9.60;;;;;;;6.62;67.62;100863.06;5077680;28;20044;-74
2021/05/09 03:55:42;;;;;;;16.85;9.50;;;;;;;6.87;66.38;100868.41;5095279;28;20465;-76
2021/05/09 03:58:08;;;;;;;15.32;9.57;;;;;;;7.26;64.69;100849.31;5095541;28;20461;-74
2021/05/09 04:00:33;;;;;;;14.57;9.55;;;;;;;8.06;63.11;100868.34;5095467;28;20032;-74
2021/05/09 04:02:59;;;;;;;17.60;9.98;;;;;;;9.03;60.11;100863.41;5095235;28;20075;-74
2021/05/09 04:05:24;;;;;;;16.73;9.23;;;;;;;9.75;58.09;100869.84;5077291;28;20044;-75
2021/05/09 04:07:49;;;;;;;19.15;9.32;;;;;;;10.04;55.13;100799.19;5095025;28;20036;-75
2021/05/09 04:10:15;;;;;;;15.35;9.40;;;;;;;10.46;54.09;100830.00;5077489;28;20036;-74
2021/05/09 04:12:40;;;;;;;14.50;8.95;;;;;;;10.94;54.14;100856.91;5060084;28;20031;-74
2021/05/09 04:15:07;;;;;;;13.85;8.93;;;;;;;11.85;51.67;100873.34;5094938;28;20131;-75
2021/05/09 04:17:32;;;;;;;14.68;8.77;;;;;;;12.17;49.43;100857.31;5076962;28;20036;-75
2021/05/09 04:19:57;;;;;;;15.57;9.40;;;;;;;12.57;48.76;100851.38;5076565;28;20044;-72
2021/05/09 04:22:23;;;;;;;16.77;8.68;;;;;;;12.60;48.01;100872.59;5077223;28;20110;-73
2021/05/09 04:24:48;;;;;;;16.27;9.30;;;;;;;12.18;48.49;100875.94;5094453;28;20024;-74
2021/05/09 04:27:14;;;;;;;15.40;8.75;;;;;;;11.82;49.69;100852.13;5076712;28;20054;-73
2021/05/09 04:29:40;;;;;;;14.30;8.93;;;;;;;12.14;49.41;100879.72;5094608;28;20093;-78
2021/05/09 04:32:06;;;;;;;15.30;8.50;;;;;;;12.54;47.67;100872.94;5076628;28;20036;-71
2021/05/09 04:34:31;;;;;;;13.25;8.40;;;;;;;13.04;46.05;100871.78;5093675;28;20373;-72
2021/05/09 04:36:57;;;;;;;14.85;8.73;;;;;;;13.39;44.20;100874.13;5076765;28;20032;-71
2021/05/09 04:39:23;;;;;;;13.75;8.10;;;;;;;13.94;42.73;100855.41;5076615;28;20028;-72
2021/05/09 04:41:48;;;;;;;13.82;7.22;;;;;;;13.89;41.08;100859.34;5076438;28;20028;-72
2021/05/09 04:44:14;;;;;;;13.20;7.55;;;;;;;13.94;42.18;100881.38;5059779;28;20043;-72
2021/05/09 04:46:40;;;;;;;15.18;8.27;;;;;;;14.40;39.92;100881.06;5094349;28;20073;-72
2021/05/09 04:49:05;;;;;;;14.77;7.70;;;;;;;14.69;39.35;100866.59;5059727;28;20473;-73
2021/05/09 04:51:32;;;;;;;14.43;7.60;;;;;;;14.72;38.51;100884.31;5076599;28;20031;-73
2021/05/09 04:53:58;;;;;;;16.42;8.57;;;;;;;14.54;39.77;100872.97;5076394;28;20473;-74
2021/05/09 04:56:23;;;;;;;14.13;7.78;;;;;;;14.45;39.72;100884.31;5059603;28;20082;-73
2021/05/09 04:58:49;;;;;;;13.93;8.13;;;;;;;13.83;40.64;100894.63;5094076;28;20102;-74
2021/05/09 05:01:14;;;;;;;13.07;7.57;;;;;;;13.00;42.48;100891.63;5094005;28;20032;-73
2021/05/09 05:03:40;;;;;;;13.65;7.72;;;;;;;12.96;43.05;100892.78;5094325;28;20535;-73
2021/05/09 05:06:06;;;;;;;14.77;7.82;;;;;;;13.18;42.86;100869.09;5075837;28;20031;-73
2021/05/09 05:08:33;;;;;;;14.65;7.63;;;;;;;14.07;40.98;100879.63;5094247;28;20040;-71
2021/05/09 05:11:07;;;;;;;13.23;7.95;;;;;;;14.46;39.99;100886.03;5075669;28;20028;-72
2021/05/09 05:13:34;;;;;;;15.10;8.27;;;;;;;14.62;39.41;100881.38;5093952;28;20346;-73
2021/05/09 05:16:04;;;;;;;17.00;8.60;;;;;;;15.30;38.60;100893.75;5075609;28;20115;-73
2021/05/09 05:18:31;;;;;;;13.10;8.60;;;;;;;15.57;37.76;100888.28;5094130;28;20048;-73
2021/05/09 05:21:05;;;;;;;14.38;7.72;;;;;;;15.63;37.38;100880.69;5093491;28;20420;-73
2021/05/09 05:23:31;;;;;;;16.05;8.10;;;;;;;15.73;37.16;100905.09;5076994;28;20032;-72
2021/05/09 05:25:57;;;;;;;15.52;8.52;;;;;;;15.99;37.22;100904.03;5093451;28;20495;-72
2021/05/09 05:28:23;;;;;;;14.40;7.93;;;;;;;16.30;36.26;100907.19;5093808;28;20032;-72
2021/05/09 05:30:49;;;;;;;15.68;7.95;;;;;;;16.57;36.10;100878.22;5093225;28;20032;-72
2021/05/09 05:33:25;;;;;;;15.73;8.05;;;;;;;16.92;35.60;100893.56;5093767;28;20063;-72
2021/05/09 05:35:51;;;;;;;13.73;8.48;;;;;;;17.30;35.12;100897.84;5093402;28;20496;-72
2021/05/09 05:38:16;;;;;;;15.80;8.80;;;;;;;17.61;34.25;100899.84;5093818;28;20085;-72
2021/05/09 05:40:42;;;;;;;15.90;8.23;;;;;;;17.17;34.96;100898.78;5075500;28;20071;-72
2021/05/09 05:43:07;;;;;;;15.73;8.43;;;;;;;17.57;34.45;100894.81;5075032;28;20460;-72
2021/05/09 05:45:33;;;;;;;14.05;7.40;;;;;;;17.95;33.87;100899.84;5058095;28;20039;-72
2021/05/09 05:47:58;;;;;;;15.77;8.20;;;;;;;18.03;34.09;100900.09;5093239;28;20479;-72
2021/05/09 05:50:24;;;;;;;15.27;8.30;;;;;;;18.22;33.66;100897.59;5093533;28;20571;-72
2021/05/09 05:52:49;;;;;;;14.65;7.65;;;;;;;18.17;32.90;100840.44;5092973;28;20055;-72
2021/05/09 05:55:14;;;;;;;12.73;7.15;;;;;;;18.52;32.12;100894.22;5093701;28;20036;-73
2021/05/09 05:57:40;;;;;;;12.23;6.35;;;;;;;19.27;30.89;100895.13;5075306;28;20092;-73
2021/05/09 06:00:06;;;;;;;13.18;6.75;;;;;;;19.23;30.97;100874.75;5074910;28;20274;-73
2021/05/09 06:02:32;;;;;;;12.32;6.20;;;;;;;19.69;30.36;100896.00;5058744;28;20381;-73
2021/05/09 06:04:57;;;;;;;13.02;6.35;;;;;;;19.62;29.87;100894.81;5093016;28;20032;-69
2021/05/09 06:07:23;;;;;;;11.98;6.47;;;;;;;19.86;29.49;100892.63;5093334;28;20030;-68
2021/05/09 06:09:48;;;;;;;12.52;6.93;;;;;;;19.93;29.90;100888.38;5074993;28;20036;-75
2021/05/09 06:12:14;;;;;;;15.20;6.45;;;;;;;19.89;29.56;100881.53;5093183;28;20032;-67
2021/05/09 06:14:39;;;;;;;12.68;5.82;;;;;;;20.21;29.09;100888.59;5093256;28;20032;-68
2021/05/09 06:17:05;;;;;;;12.85;6.07;;;;;;;19.63;29.55;100869.47;5092837;28;20384;-68
2021/05/09 06:19:30;;;;;;;13.10;6.07;;;;;;;20.40;29.03;100876.97;5075012;28;20412;-68
2021/05/09 06:21:56;;;;;;;12.38;5.95;;;;;;;19.98;29.44;100880.72;5092410;28;20435;-68
2021/05/09 06:24:21;;;;;;;12.45;5.68;;;;;;;20.07;29.67;100867.31;5074970;28;20032;-68
2021/05/09 06:26:49;;;;;;;11.70;5.55;;;;;;;20.21;29.42;100845.28;5093164;28;20037;-68
2021/05/09 06:29:14;;;;;;;11.43;5.55;;;;;;;20.49;29.20;100879.72;5092977;28;20140;-74
2021/05/09 06:31:40;;;;;;;10.73;5.50;;;;;;;20.34;29.40;100864.81;5075153;28;20417;-72
2021/05/09 06:34:07;;;;;;;10.98;5.32;;;;;;;20.16;29.48;100839.41;5092446;28;20028;-71
2021/05/09 06:36:32;;;;;;;11.82;6.00;;;;;;;20.75;29.15;100874.59;5092678;28;20043;-73
2021/05/09 06:38:57;;;;;;;11.52;5.38;;;;;;;20.52;28.52;100882.13;5092357;28;20032;-72
2021/05/09 06:41:23;;;;;;;11.10;5.05;;;;;;;20.61;28.59;100866.03;5092749;28;20040;-74
2021/05/09 06:43:54;;;;;;;10.80;4.90;;;;;;;20.84;28.61;100890.00;5092863;28;20034;-76
2021/05/09 06:46:19;;;;;;;10.38;5.30;;;;;;;20.94;28.58;100878.28;5092928;28;20386;-75
2021/05/09 06:48:45;;;;;;;12.10;5.32;;;;;;;21.42;27.30;100880.94;5092837;28;20028;-73
2021/05/09 06:51:10;;;;;;;13.13;5.72;;;;;;;21.37;27.78;100877.81;5074305;28;20144;-69
2021/05/09 06:53:35;;;;;;;12.65;5.70;;;;;;;21.11;27.68;100867.56;5092844;28;20040;-68
2021/05/09 06:56:01;;;;;;;12.02;5.55;;;;;;;20.08;28.77;100858.22;5092549;28;20511;-72
2021/05/09 06:58:26;;;;;;;14.52;5.35;;;;;;;19.36;30.10;100881.66;5097302;28;20415;-73
2021/05/09 07:00:52;;;;;;;12.65;5.75;;;;;;;19.01;30.98;100879.31;5088907;28;20118;-76
2021/05/09 07:03:17;;;;;;;10.50;5.40;;;;;;;18.68;31.46;100872.22;5104495;28;20020;-76
2021/05/09 07:05:43;;;;;;;11.48;4.60;;;;;;;18.41;31.68;100850.19;5089187;28;20115;-72
2021/05/09 07:08:09;;;;;;;11.35;4.65;;;;;;;18.43;31.07;100848.19;5105784;28;20036;-70
2021/05/09 07:10:36;;;;;;;13.65;5.18;;;;;;;18.56;31.75;100867.81;5105166;28;20028;-73
2021/05/09 07:13:02;;;;;;;13.75;5.28;;;;;;;18.16;31.29;100854.94;5104946;28;20027;-75
2021/05/09 07:18:13;;;;;;;12.80;4.78;;;;;;;18.06;31.64;100870.19;5108913;28;20034;-70
2021/05/09 07:20:44;;;;;;;16.13;5.00;;;;;;;17.95;31.88;100846.75;5090059;28;20043;-71
2021/05/09 07:23:11;;;;;;;12.73;5.20;;;;;;;17.90;31.91;100848.97;5092036;28;20110;-66
2021/05/09 07:25:36;;;;;;;17.45;5.10;;;;;;;17.66;32.51;100851.78;5116496;28;20039;-71
2021/05/09 07:28:07;;;;;;;16.80;5.07;;;;;;;17.17;32.33;100815.22;5116547;28;20042;-71
2021/05/09 07:30:34;;;;;;;17.13;5.32;;;;;;;17.31;32.63;100864.50;5116379;28;20028;-68
2021/05/09 07:33:00;;;;;;;14.80;5.30;;;;;;;17.28;33.08;100870.16;5116418;28;20088;-70
2021/05/09 07:35:26;;;;;;;15.65;5.72;;;;;;;17.31;32.59;100867.19;5098176;28;20084;-71
2021/05/09 07:37:52;;;;;;;9.77;4.68;;;;;;;17.22;32.68;100865.22;5112552;28;20024;-70
2021/05/09 07:40:22;;;;;;;12.95;4.93;;;;;;;16.91;32.76;100821.81;5107550;28;20365;-71
2021/05/09 07:42:47;;;;;;;14.98;5.05;;;;;;;17.22;32.98;100865.22;5098288;28;20036;-70
2021/05/09 07:45:21;;;;;;;15.00;4.88;;;;;;;17.10;32.94;100858.97;5080830;28;20256;-71
2021/05/09 07:47:47;;;;;;;12.07;5.10;;;;;;;17.12;33.69;100859.69;5115967;28;20036;-72
2021/05/09 07:50:14;;;;;;;12.20;5.18;;;;;;;17.32;32.44;100866.22;5110101;28;20545;-71
2021/05/09 07:52:40;;;;;;;13.88;5.50;;;;;;;17.08;32.72;100840.22;5067565;28;20507;-77
2021/05/09 07:55:06;;;;;;;15.60;5.45;;;;;;;17.16;33.29;100859.31;5100494;28;20039;-72
2021/05/09 07:57:32;;;;;;;13.50;5.38;;;;;;;17.21;32.25;100871.59;5086753;28;20481;-70
2021/05/09 07:59:58;;;;;;;13.23;4.93;;;;;;;17.12;32.33;100848.91;5102716;28;20101;-71
2021/05/09 08:02:23;;;;;;;15.48;5.78;;;;;;;17.20;32.77;100848.31;5101852;28;20161;-70
2021/05/09 08:04:49;;;;;;;14.18;5.18;;;;;;;17.23;33.07;100845.38;5086568;28;20112;-71
2021/05/09 08:07:17;;;;;;;14.68;5.00;;;;;;;17.27;32.39;100871.09;5102334;28;20453;-72
2021/05/09 08:09:43;;;;;;;14.88;5.15;;;;;;;17.42;32.12;100859.97;5104084;28;20065;-74
2021/05/09 08:12:09;;;;;;;13.93;5.00;;;;;;;17.33;31.66;100843.66;5101756;28;20133;-80
2021/05/09 08:14:35;;;;;;;14.07;5.90;;;;;;;17.27;31.25;100849.53;5102700;28;20028;-77
2021/05/09 08:17:01;;;;;;;12.32;5.03;;;;;;;17.39;31.61;100876.41;5086167;28;20024;-78
2021/05/09 08:19:26;;;;;;;14.18;4.93;;;;;;;17.32;32.16;100877.88;5099136;28;20385;-74
2021/05/09 08:21:52;;;;;;;15.25;5.70;;;;;;;17.27;32.15;100861.16;5075420;28;20123;-75
2021/05/09 08:24:18;;;;;;;15.52;5.20;;;;;;;17.35;32.30;100874.06;5093911;28;20039;-75
2021/05/09 08:26:43;;;;;;;14.25;4.90;;;;;;;17.25;31.63;100856.88;5094118;28;20024;-77
2021/05/09 08:29:09;;;;;;;15.40;5.13;;;;;;;17.22;31.19;100835.56;5093999;28;20036;-75
2021/05/09 08:31:36;;;;;;;16.10;5.10;;;;;;;17.32;31.08;100842.81;5059407;28;20032;-77
2021/05/09 08:34:01;;;;;;;12.73;5.20;;;;;;;17.32;31.53;100844.66;5078481;28;20028;-79
2021/05/09 08:36:27;;;;;;;14.13;4.82;;;;;;;17.39;31.61;100865.63;5086169;28;20415;-78
2021/05/09 08:38:52;;;;;;;14.88;5.45;;;;;;;17.42;31.32;100867.22;5079722;28;20039;-81
2021/05/09 08:41:18;;;;;;;17.50;5.57;;;;;;;17.56;31.48;100864.25;5075734;28;20052;-73
2021/05/09 08:43:43;;;;;;;14.35;5.03;;;;;;;17.43;31.16;100861.69;5093819;28;20492;-78
2021/05/09 08:46:11;;;;;;;13.98;5.15;;;;;;;17.58;31.76;100866.88;5092951;28;20377;-74
2021/05/09 08:48:37;;;;;;;17.08;5.38;;;;;;;17.60;31.85;100859.50;5093652;28;20107;-70
2021/05/09 08:51:04;;;;;;;15.45;5.03;;;;;;;17.55;30.78;100834.72;5092963;28;20036;-74
2021/05/09 08:53:30;;;;;;;13.75;4.68;;;;;;;17.65;30.78;100860.81;5093118;28;20028;-72
2021/05/09 08:55:56;;;;;;;13.73;4.90;;;;;;;17.58;29.63;100862.31;5093493;28;20123;-70
2021/05/09 08:58:21;;;;;;;14.25;5.00;;;;;;;17.66;30.47;100854.47;5075044;28;20119;-71
2021/05/09 09:00:47;;;;;;;15.68;4.93;;;;;;;17.80;30.80;100852.53;5095163;28;20030;-74
2021/05/09 09:03:16;;;;;;;16.00;4.88;;;;;;;17.85;30.47;100859.25;5094264;28;20067;-78
2021/05/09 09:05:42;;;;;;;16.63;5.40;;;;;;;17.90;30.65;100862.44;5093177;28;20064;-72
2021/05/09 09:08:10;;;;;;;15.05;5.20;;;;;;;17.90;30.67;100862.44;5074981;28;20042;-72
2021/05/09 09:10:39;;;;;;;18.15;5.20;;;;;;;17.97;30.71;100873.63;5074378;28;20074;-72
2021/05/09 09:13:19;;;;;;;15.50;5.68;;;;;;;17.84;30.83;100854.84;5074863;28;20032;-73
2021/05/09 09:15:54;;;;;;;15.85;5.13;;;;;;;17.82;31.21;100853.25;5092694;28;20143;-73
2021/05/09 09:18:38;;;;;;;13.45;4.97;;;;;;;18.03;31.31;100860.47;5092391;28;20075;-73
2021/05/09 09:21:22;;;;;;;;;;;;;;;18.15;30.57;100852.38;5094014;28;20024;-71
2021/05/09 09:23:50;;;;;;;14.07;4.78;;;;;;;18.15;30.55;100845.13;5101486;28;19923;-74
2021/05/09 09:26:28;;;;;;;16.48;5.13;;;;;;;18.17;30.43;100862.03;5113420;28;20039;-71
2021/05/09 09:28:54;;;;;;;14.52;4.93;;;;;;;18.25;29.82;100859.56;5113375;28;20032;-69
2021/05/09 09:31:39;;;;;;;13.85;4.50;;;;;;;18.31;29.24;100859.03;5112949;28;20039;-74
2021/05/09 09:34:05;;;;;;;14.77;4.70;;;;;;;18.29;28.96;100861.03;5095021;28;20035;-71
2021/05/09 09:36:31;;;;;;;14.00;4.35;;;;;;;18.30;28.70;100854.63;5094283;28;20126;-73
2021/05/09 09:38:56;;;;;;;12.25;4.65;;;;;;;18.22;29.39;100830.09;5112878;28;20107;-71
2021/05/09 09:41:23;;;;;;;12.43;4.53;;;;;;;18.41;29.37;100850.19;5094272;28;20043;-75
2021/05/09 09:44:08;;;;;;;14.40;5.07;;;;;;;18.36;29.14;100849.72;5109816;28;20067;-75
2021/05/09 09:46:42;;;;;;;15.40;5.15;;;;;;;18.38;29.00;100861.25;5094234;28;20031;-72
2021/05/09 09:49:27;;;;;;;15.15;4.75;;;;;;;18.43;29.29;100845.50;5080542;28;20028;-74
2021/05/09 09:51:55;;;;;;;13.77;4.82;;;;;;;18.38;29.53;100826.16;5091656;28;20038;-72
2021/05/09 09:54:45;;;;;;;17.92;5.25;;;;;;;18.47;28.99;100836.19;5110986;28;20032;-75
2021/05/09 09:57:22;;;;;;;14.18;4.90;;;;;;;18.64;28.55;100843.72;5112782;28;20035;-77
2021/05/09 10:00:07;;;;;;;14.82;4.97;;;;;;;18.70;28.56;100848.63;5112103;28;20028;-78
2021/05/09 10:02:33;;;;;;;11.70;4.95;;;;;;;18.67;28.78;100837.22;5112377;28;20429;-77
2021/05/09 10:05:00;;;;;;;14.27;4.43;;;;;;;18.34;28.64;100781.50;5112586;28;20122;-79
2021/05/09 10:07:26;;;;;;;14.73;4.60;;;;;;;18.56;28.66;100819.19;5112809;28;20035;-75
2021/05/09 10:09:54;;;;;;;13.05;4.70;;;;;;;18.66;28.24;100825.56;5094135;28;20042;-76
2021/05/09 10:12:20;;;;;;;12.75;4.57;;;;;;;18.80;28.27;100827.94;5094244;28;20131;-74
2021/05/09 10:14:45;;;;;;;12.27;4.30;;;;;;;18.90;27.94;100837.94;5076940;28;20469;-73
2021/05/09 10:17:12;;;;;;;11.02;4.43;;;;;;;18.90;27.59;100838.81;5077612;28;20397;-74
2021/05/09 10:19:37;;;;;;;18.05;5.00;;;;;;;18.86;28.17;100813.91;5069382;28;20052;-75
2021/05/09 10:22:30;;;;;;;13.48;4.28;;;;;;;18.84;28.27;100821.28;5055668;28;20447;-71
2021/05/09 10:24:56;;;;;;;13.07;4.40;;;;;;;18.97;28.43;100837.31;5067309;28;20170;-74
2021/05/09 10:27:41;;;;;;;14.85;4.45;;;;;;;18.78;28.70;100832.63;5072262;28;20036;-78
2021/05/09 10:30:20;;;;;;;12.40;4.25;;;;;;;18.91;28.89;100823.44;5071939;28;20086;-77
2021/05/09 10:32:48;;;;;;;12.95;4.40;;;;;;;19.04;28.08;100819.56;5073890;28;20051;-77
2021/05/09 10:35:14;;;;;;;11.95;4.03;;;;;;;19.07;28.48;100823.84;5075552;28;20037;-74
2021/05/09 10:37:45;;;;;;;13.13;4.43;;;;;;;19.17;28.45;100820.22;5041284;28;20036;-78
2021/05/09 10:40:20;;;;;;;12.55;4.32;;;;;;;19.07;27.04;100794.09;5075622;28;20047;-78
2021/05/09 10:42:47;;;;;;;11.80;3.80;;;;;;;19.20;27.15;100813.66;5075259;28;20030;-74
2021/05/09 10:45:29;;;;;;;12.25;4.28;;;;;;;19.10;27.83;100791.97;5075283;28;20064;-77
2021/05/09 10:48:13;;;;;;;11.45;4.20;;;;;;;19.21;28.05;100804.59;5075343;28;20048;-74
2021/05/09 10:50:39;;;;;;;13.27;4.40;;;;;;;19.16;28.30;100791.47;5057201;28;20029;-75
2021/05/09 10:53:05;;;;;;;13.73;4.25;;;;;;;19.23;27.91;100807.16;5075186;28;20033;-76
2021/05/09 10:55:40;;;;;;;11.93;4.10;;;;;;;19.35;27.88;100801.50;5066259;28;20062;-82
2021/05/09 10:58:11;;;;;;;12.80;4.00;;;;;;;19.27;27.82;100784.25;5080267;28;20035;-76
2021/05/09 11:00:55;;;;;;;14.73;4.53;;;;;;;19.42;28.61;100800.00;5113751;28;20035;-75
2021/05/09 11:03:36;;;;;;;14.88;4.07;;;;;;;19.52;27.97;100801.88;5097751;28;20384;-75
2021/05/09 11:06:06;;;;;;;13.32;4.18;;;;;;;19.53;27.50;100809.00;5115664;28;20032;-75
2021/05/09 11:08:41;;;;;;;12.05;4.00;;;;;;;19.46;27.69;100805.97;5115645;28;20439;-76
2021/05/09 11:11:27;;;;;;;14.27;4.50;;;;;;;19.45;28.79;100791.59;5115380;28;20051;-73
2021/05/09 11:13:56;;;;;;;17.55;5.63;;;;;;;19.51;28.92;100784.78;5073557;28;20051;-74
2021/05/09 11:16:21;;;;;;;22.38;8.05;;;;;;;19.40;28.58;100747.03;5115415;28;20483;-71
2021/05/09 11:18:56;;;;;;;14.55;5.53;;;;;;;19.59;28.00;100765.16;5097109;28;20052;-73
2021/05/09 11:21:21;;;;;;;13.18;4.68;;;;;;;19.64;28.23;100784.56;5072558;28;20047;-72